createdAt,value
2018-02-19T00:00:03.570Z,27.30
2018-02-19T00:01:03.596Z,26.60
2018-02-19T00:02:03.621Z,26.40
2018-02-19T00:03:03.650Z,26.80
2018-02-19T00:04:03.672Z,25.90
2018-02-19T00:05:03.698Z,27.20
2018-02-19T00:06:03.724Z,27.10
2018-02-19T00:07:03.748Z,25.30
2018-02-19T00:08:03.779Z,27.70
2018-02-19T00:09:03.800Z,24.70
2018-02-19T00:10:03.826Z,27.60
2018-02-19T00:11:03.851Z,27.00
2018-02-19T00:12:03.877Z,25.10
2018-02-19T00:13:03.903Z,26.60
2018-02-19T00:14:03.927Z,26.10
2018-02-19T00:15:03.953Z,25.90
2018-02-19T00:16:03.976Z,27.20
2018-02-19T00:17:04.002Z,25.70
2018-02-19T00:18:04.029Z,27.40
2018-02-19T00:19:04.078Z,25.80
2018-02-19T00:20:04.079Z,25.80
2018-02-19T00:21:04.105Z,27.20
2018-02-19T00:22:04.129Z,25.70
2018-02-19T00:23:04.156Z,25.60
2018-02-19T00:24:04.180Z,25.80
2018-02-19T00:25:04.205Z,25.00
2018-02-19T00:26:04.230Z,26.10
2018-02-19T00:27:04.257Z,26.00
2018-02-19T00:28:04.281Z,27.30
2018-02-19T00:29:04.308Z,26.10
2018-02-19T00:30:04.332Z,26.20
2018-02-19T00:31:04.359Z,26.50
2018-02-19T00:32:04.384Z,25.60
2018-02-19T00:33:04.409Z,26.90
2018-02-19T00:34:04.435Z,27.20
2018-02-19T00:35:04.461Z,26.80
2018-02-19T00:36:04.485Z,25.80
2018-02-19T00:37:04.513Z,26.90
2018-02-19T00:38:04.535Z,25.50
2018-02-19T00:39:04.560Z,28.30
2018-02-19T00:40:04.589Z,27.00
2018-02-19T00:41:04.611Z,26.70
2018-02-19T00:42:04.636Z,26.70
2018-02-19T00:43:04.663Z,26.90
2018-02-19T00:44:04.688Z,26.60
2018-02-19T00:45:04.713Z,26.90
2018-02-19T00:46:04.738Z,26.10
2018-02-19T00:47:04.762Z,27.20
2018-02-19T00:48:04.788Z,26.70
2018-02-19T00:49:04.815Z,26.50
2018-02-19T00:50:04.839Z,26.10
2018-02-19T00:51:04.865Z,27.40
2018-02-19T00:52:04.889Z,25.20
2018-02-19T00:53:04.915Z,26.30
2018-02-19T00:54:04.941Z,25.70
2018-02-19T00:55:04.968Z,25.10
2018-02-19T00:56:04.991Z,24.90
2018-02-19T00:57:05.017Z,25.80
2018-02-19T00:58:05.041Z,25.80
2018-02-19T00:59:05.068Z,25.20
2018-02-19T01:00:05.094Z,25.90
2018-02-19T01:01:05.317Z,26.50
2018-02-19T01:02:05.144Z,25.50
2018-02-19T01:03:05.170Z,26.20
2018-02-19T01:04:05.194Z,25.90
2018-02-19T01:05:05.219Z,25.60
2018-02-19T01:06:05.251Z,24.30
2018-02-19T01:07:05.271Z,25.10
2018-02-19T01:08:05.296Z,26.60
2018-02-19T01:09:05.322Z,25.20
2018-02-19T01:10:05.349Z,26.40
2018-02-19T01:11:05.373Z,24.60
2018-02-19T01:12:05.398Z,24.20
2018-02-19T01:13:05.424Z,23.50
2018-02-19T01:14:05.450Z,24.80
2018-02-19T01:15:05.476Z,24.60
2018-02-19T01:16:05.500Z,24.60
2018-02-19T01:17:05.526Z,23.90
2018-02-19T01:18:05.552Z,24.50
2018-02-19T01:19:05.577Z,25.20
2018-02-19T01:20:05.602Z,25.40
2018-02-19T01:21:05.628Z,25.40
2018-02-19T01:22:05.654Z,25.20
2018-02-19T01:23:05.679Z,26.00
2018-02-19T01:24:05.704Z,26.00
2018-02-19T01:25:05.730Z,25.30
2018-02-19T01:26:05.755Z,25.40
2018-02-19T01:27:05.781Z,26.50
2018-02-19T01:28:05.806Z,26.30
2018-02-19T01:29:05.830Z,25.30
2018-02-19T01:30:05.856Z,26.60
2018-02-19T01:31:05.883Z,26.70
2018-02-19T01:32:05.908Z,26.20
2018-02-19T01:33:05.932Z,24.70
2018-02-19T01:34:05.960Z,26.60
2018-02-19T01:35:05.986Z,26.20
2018-02-19T01:36:06.010Z,26.60
2018-02-19T01:37:06.036Z,25.80
2018-02-19T01:38:06.061Z,27.00
2018-02-19T01:39:06.087Z,26.40
2018-02-19T01:40:06.111Z,25.70
2018-02-19T01:41:06.137Z,25.70
2018-02-19T01:42:06.161Z,26.50
2018-02-19T01:43:06.194Z,28.00
2018-02-19T01:44:06.213Z,27.40
2018-02-19T01:45:06.239Z,27.60
2018-02-19T01:46:06.264Z,27.30
2018-02-19T01:47:06.291Z,27.30
2018-02-19T01:48:06.315Z,26.40
2018-02-19T01:49:06.342Z,27.10
2018-02-19T01:50:06.368Z,28.00
2018-02-19T01:51:06.392Z,28.60
2018-02-19T01:52:06.418Z,28.20
2018-02-19T01:53:06.444Z,27.00
2018-02-19T01:54:06.470Z,28.70
2018-02-19T01:55:06.494Z,28.20
2018-02-19T01:56:06.521Z,28.50
2018-02-19T01:57:06.545Z,29.80
2018-02-19T01:58:06.573Z,27.90
2018-02-19T01:59:06.598Z,27.70
2018-02-19T02:00:06.625Z,28.00
2018-02-19T02:01:06.650Z,27.70
2018-02-19T02:02:06.678Z,26.80
2018-02-19T02:03:06.707Z,27.80
2018-02-19T02:04:06.728Z,28.10
2018-02-19T02:05:06.752Z,27.00
2018-02-19T02:06:06.778Z,27.30
2018-02-19T02:07:06.804Z,27.50
2018-02-19T02:08:06.830Z,27.10
2018-02-19T02:09:06.855Z,27.60
2018-02-19T02:10:06.882Z,27.40
2018-02-19T02:11:06.908Z,27.40
2018-02-19T02:12:06.932Z,27.50
2018-02-19T02:13:06.959Z,26.60
2018-02-19T02:14:06.985Z,27.10
2018-02-19T02:15:07.011Z,26.20
2018-02-19T02:16:07.036Z,25.70
2018-02-19T02:17:07.064Z,24.60
2018-02-19T02:18:07.089Z,24.40
2018-02-19T02:19:07.113Z,24.00
2018-02-19T02:20:07.140Z,23.80
2018-02-19T02:21:07.165Z,24.90
2018-02-19T02:22:07.191Z,24.90
2018-02-19T02:23:07.217Z,26.00
2018-02-19T02:24:07.243Z,24.30
2018-02-19T02:25:07.267Z,24.20
2018-02-19T02:26:07.295Z,22.70
2018-02-19T02:27:07.321Z,24.00
2018-02-19T02:28:07.351Z,23.10
2018-02-19T02:29:07.425Z,24.50
2018-02-19T02:30:07.406Z,24.40
2018-02-19T02:31:07.426Z,24.40
2018-02-19T02:32:07.452Z,25.80
2018-02-19T02:33:07.475Z,27.60
2018-02-19T02:34:07.507Z,27.30
2018-02-19T02:35:07.527Z,28.10
2018-02-19T02:36:07.555Z,27.90
2018-02-19T02:37:07.578Z,26.30
2018-02-19T02:38:07.613Z,26.60
2018-02-19T02:39:07.637Z,26.70
2018-02-19T02:40:07.657Z,27.00
2018-02-19T02:41:07.682Z,26.40
2018-02-19T02:42:07.714Z,26.90
2018-02-19T02:43:07.734Z,25.90
2018-02-19T02:44:07.765Z,26.80
2018-02-19T02:45:07.785Z,26.20
2018-02-19T02:46:07.811Z,25.40
2018-02-19T02:47:07.837Z,29.00
2018-02-19T02:48:07.863Z,27.80
2018-02-19T02:49:07.897Z,27.70
2018-02-19T02:50:07.914Z,28.50
2018-02-19T02:51:07.942Z,26.60
2018-02-19T02:52:07.966Z,27.20
2018-02-19T02:53:07.992Z,26.60
2018-02-19T02:54:08.019Z,26.30
2018-02-19T02:55:08.044Z,25.50
2018-02-19T02:56:08.071Z,26.30
2018-02-19T02:57:08.097Z,27.10
2018-02-19T02:58:08.120Z,27.00
2018-02-19T02:59:08.148Z,26.60
2018-02-19T03:00:08.173Z,26.70
2018-02-19T03:01:08.198Z,26.90
2018-02-19T03:02:08.225Z,25.30
2018-02-19T03:03:08.250Z,25.20
2018-02-19T03:04:08.275Z,26.10
2018-02-19T03:05:08.303Z,26.80
2018-02-19T03:06:08.331Z,26.40
2018-02-19T03:07:08.354Z,27.90
2018-02-19T03:08:08.380Z,26.70
2018-02-19T03:09:08.406Z,27.70
2018-02-19T03:10:08.432Z,27.50
2018-02-19T03:11:08.459Z,25.80
2018-02-19T03:12:08.483Z,25.70
2018-02-19T03:13:08.511Z,27.50
2018-02-19T03:14:08.536Z,27.00
2018-02-19T03:15:08.562Z,26.30
2018-02-19T03:16:08.586Z,26.80
2018-02-19T03:17:08.613Z,27.00
2018-02-19T03:18:08.638Z,27.10
2018-02-19T03:19:08.666Z,27.60
2018-02-19T03:20:08.691Z,26.30
2018-02-19T03:21:08.717Z,26.90
2018-02-19T03:22:08.743Z,25.30
2018-02-19T03:23:08.768Z,25.60
2018-02-19T03:24:08.793Z,27.30
2018-02-19T03:25:08.859Z,26.70
2018-02-19T03:26:08.848Z,26.30
2018-02-19T03:27:08.874Z,26.50
2018-02-19T03:28:08.898Z,26.70
2018-02-19T03:29:08.924Z,25.50
2018-02-19T03:30:08.951Z,25.50
2018-02-19T03:31:08.977Z,24.30
2018-02-19T03:32:09.001Z,25.10
2018-02-19T03:33:09.028Z,24.10
2018-02-19T03:34:09.053Z,22.90
2018-02-19T03:35:09.078Z,24.60
2018-02-19T03:36:09.104Z,24.70
2018-02-19T03:37:09.131Z,24.30
2018-02-19T03:38:09.157Z,25.60
2018-02-19T03:39:09.183Z,23.70
2018-02-19T03:40:09.217Z,25.10
2018-02-19T03:41:09.235Z,23.90
2018-02-19T03:42:09.261Z,25.00
2018-02-19T03:43:09.287Z,24.60
2018-02-19T03:44:09.316Z,25.20
2018-02-19T03:45:09.404Z,25.40
2018-02-19T03:46:09.364Z,25.50
2018-02-19T03:47:09.390Z,24.80
2018-02-19T03:48:09.415Z,24.30
2018-02-19T03:49:09.441Z,24.20
2018-02-19T03:50:09.467Z,25.50
2018-02-19T03:51:09.494Z,26.60
2018-02-19T03:52:09.518Z,26.60
2018-02-19T03:53:09.544Z,28.20
2018-02-19T03:54:09.575Z,26.50
2018-02-19T03:55:09.597Z,26.50
2018-02-19T03:56:09.622Z,26.50
2018-02-19T03:57:09.653Z,26.50
2018-02-19T03:58:09.675Z,25.90
2018-02-19T03:59:09.701Z,27.00
2018-02-19T04:00:09.725Z,27.20
2018-02-19T04:01:09.750Z,27.60
2018-02-19T04:02:09.777Z,26.90
2018-02-19T04:03:09.803Z,25.50
2018-02-19T04:04:09.828Z,27.20
2018-02-19T04:05:09.855Z,26.40
2018-02-19T04:06:09.883Z,26.50
2018-02-19T04:07:09.907Z,25.10
2018-02-19T04:08:09.939Z,25.40
2018-02-19T04:09:09.958Z,25.50
2018-02-19T04:10:09.985Z,25.30
2018-02-19T04:11:10.010Z,24.20
2018-02-19T04:12:10.035Z,24.80
2018-02-19T04:13:10.061Z,25.30
2018-02-19T04:14:10.087Z,25.00
2018-02-19T04:15:10.113Z,24.90
2018-02-19T04:16:10.140Z,24.30
2018-02-19T04:17:10.162Z,24.50
2018-02-19T04:18:10.189Z,24.50
2018-02-19T04:19:10.216Z,25.80
2018-02-19T04:20:10.241Z,26.50
2018-02-19T04:21:10.267Z,26.60
2018-02-19T04:22:10.299Z,26.40
2018-02-19T04:23:10.319Z,25.80
2018-02-19T04:24:10.344Z,27.10
2018-02-19T04:25:10.371Z,27.30
2018-02-19T04:26:10.401Z,25.80
2018-02-19T04:27:10.423Z,25.50
2018-02-19T04:28:10.450Z,24.60
2018-02-19T04:29:10.477Z,25.70
2018-02-19T04:30:10.500Z,25.90
2018-02-19T04:31:10.526Z,25.90
2018-02-19T04:32:10.551Z,25.50
2018-02-19T04:33:10.576Z,25.70
2018-02-19T04:34:10.604Z,25.80
2018-02-19T04:35:10.631Z,26.10
2018-02-19T04:36:10.654Z,27.40
2018-02-19T04:37:10.680Z,26.30
2018-02-19T04:38:10.706Z,27.50
2018-02-19T04:39:10.732Z,26.50
2018-02-19T04:40:10.757Z,26.20
2018-02-19T04:41:10.784Z,26.10
2018-02-19T04:42:10.856Z,25.90
2018-02-19T04:43:10.835Z,27.10
2018-02-19T04:44:10.860Z,26.70
2018-02-19T04:45:10.886Z,26.40
2018-02-19T04:46:10.912Z,26.50
2018-02-19T04:47:10.939Z,28.00
2018-02-19T04:48:10.964Z,26.60
2018-02-19T04:49:10.990Z,26.00
2018-02-19T04:50:11.017Z,26.50
2018-02-19T04:51:11.043Z,27.40
2018-02-19T04:52:11.068Z,26.10
2018-02-19T04:53:11.094Z,26.30
2018-02-19T04:54:11.119Z,25.80
2018-02-19T04:55:11.146Z,24.40
2018-02-19T04:56:11.171Z,26.10
2018-02-19T04:57:11.196Z,26.50
2018-02-19T04:58:11.222Z,25.20
2018-02-19T04:59:11.248Z,25.50
2018-02-19T05:00:11.274Z,26.30
2018-02-19T05:01:11.300Z,25.20
2018-02-19T05:02:11.326Z,24.80
2018-02-19T05:03:11.352Z,24.70
2018-02-19T05:04:11.376Z,26.80
2018-02-19T05:05:11.404Z,25.70
2018-02-19T05:06:11.429Z,27.80
2018-02-19T05:07:11.456Z,25.90
2018-02-19T05:08:11.480Z,25.70
2018-02-19T05:09:11.506Z,27.50
2018-02-19T05:10:11.531Z,25.50
2018-02-19T05:11:11.558Z,25.70
2018-02-19T05:12:11.583Z,24.90
2018-02-19T05:13:11.609Z,25.30
2018-02-19T05:14:11.635Z,25.40
2018-02-19T05:15:11.661Z,25.50
2018-02-19T05:16:11.686Z,25.70
2018-02-19T05:17:11.713Z,26.50
2018-02-19T05:18:11.738Z,23.90
2018-02-19T05:19:11.764Z,24.30
2018-02-19T05:20:11.789Z,25.00
2018-02-19T05:21:11.816Z,25.80
2018-02-19T05:22:11.841Z,26.20
2018-02-19T05:23:11.866Z,26.10
2018-02-19T05:24:11.892Z,28.40
2018-02-19T05:25:11.918Z,27.30
2018-02-19T05:26:11.944Z,27.10
2018-02-19T05:27:11.970Z,26.90
2018-02-19T05:28:11.995Z,25.80
2018-02-19T05:29:12.021Z,28.30
2018-02-19T05:30:12.048Z,29.10
2018-02-19T05:31:12.074Z,28.00
2018-02-19T05:32:12.098Z,26.10
2018-02-19T05:33:12.125Z,26.20
2018-02-19T05:34:12.151Z,27.50
2018-02-19T05:35:12.177Z,28.20
2018-02-19T05:36:12.205Z,26.10
2018-02-19T05:37:12.230Z,27.20
2018-02-19T05:38:12.257Z,26.70
2018-02-19T05:39:12.281Z,25.50
2018-02-19T05:40:12.304Z,26.20
2018-02-19T05:41:12.330Z,25.50
2018-02-19T05:42:12.358Z,26.60
2018-02-19T05:43:12.382Z,27.40
2018-02-19T05:44:12.407Z,27.10
2018-02-19T05:45:12.434Z,27.60
2018-02-19T05:46:12.460Z,29.10
2018-02-19T05:47:12.487Z,28.30
2018-02-19T05:48:12.511Z,24.90
2018-02-19T05:49:12.537Z,25.70
2018-02-19T05:50:12.563Z,26.60
2018-02-19T05:51:12.589Z,26.40
2018-02-19T05:52:12.614Z,24.40
2018-02-19T05:53:12.639Z,27.30
2018-02-19T05:54:12.666Z,25.90
2018-02-19T05:55:12.691Z,25.50
2018-02-19T05:56:12.717Z,27.40
2018-02-19T05:57:12.745Z,27.40
2018-02-19T05:58:12.769Z,26.90
2018-02-19T05:59:12.795Z,25.80
2018-02-19T06:00:12.820Z,26.90
2018-02-19T06:01:12.846Z,28.00
2018-02-19T06:02:12.872Z,27.40
2018-02-19T06:03:12.898Z,27.20
2018-02-19T06:04:12.923Z,29.20
2018-02-19T06:05:12.949Z,27.20
2018-02-19T06:06:12.975Z,26.30
2018-02-19T06:07:13.000Z,28.30
2018-02-19T06:08:13.025Z,28.60
2018-02-19T06:09:13.052Z,30.30
2018-02-19T06:10:13.078Z,28.40
2018-02-19T06:11:13.105Z,28.00
2018-02-19T06:12:13.129Z,25.00
2018-02-19T06:13:13.156Z,25.20
2018-02-19T06:14:13.182Z,25.30
2018-02-19T06:15:13.207Z,25.50
2018-02-19T06:16:13.233Z,26.10
2018-02-19T06:17:13.260Z,25.30
2018-02-19T06:18:13.285Z,25.50
2018-02-19T06:19:13.311Z,26.60
2018-02-19T06:20:13.335Z,25.80
2018-02-19T06:21:13.361Z,25.80
2018-02-19T06:22:13.386Z,25.20
2018-02-19T06:23:13.413Z,27.00
2018-02-19T06:24:13.438Z,26.60
2018-02-19T06:25:13.464Z,26.40
2018-02-19T06:26:13.490Z,25.70
2018-02-19T06:27:13.517Z,26.40
2018-02-19T06:28:13.541Z,26.00
2018-02-19T06:29:13.567Z,27.00
2018-02-19T06:30:13.594Z,26.50
2018-02-19T06:31:13.618Z,27.00
2018-02-19T06:32:13.643Z,26.20
2018-02-19T06:33:13.670Z,25.70
2018-02-19T06:34:13.696Z,26.60
2018-02-19T06:35:13.722Z,25.80
2018-02-19T06:36:13.748Z,26.50
2018-02-19T06:37:13.773Z,25.50
2018-02-19T06:38:13.799Z,24.20
2018-02-19T06:39:13.825Z,24.60
2018-02-19T06:40:13.850Z,25.80
2018-02-19T06:41:13.877Z,24.50
2018-02-19T06:42:13.902Z,25.10
2018-02-19T06:43:13.929Z,24.70
2018-02-19T06:44:13.952Z,26.10
2018-02-19T06:45:13.980Z,25.60
2018-02-19T06:46:14.005Z,25.10
2018-02-19T06:47:14.029Z,25.00
2018-02-19T06:48:14.055Z,24.60
2018-02-19T06:49:14.081Z,24.80
2018-02-19T06:50:14.108Z,26.10
2018-02-19T06:51:14.133Z,26.00
2018-02-19T06:52:14.158Z,26.10
2018-02-19T06:53:14.184Z,26.40
2018-02-19T06:54:14.212Z,27.10
2018-02-19T06:55:14.235Z,26.40
2018-02-19T06:56:14.259Z,25.30
2018-02-19T06:57:14.285Z,25.00
2018-02-19T06:58:14.311Z,23.50
2018-02-19T06:59:14.340Z,24.80
2018-02-19T07:00:14.397Z,23.80
2018-02-19T07:01:14.387Z,24.60
2018-02-19T07:02:14.414Z,25.70
2018-02-19T07:03:14.440Z,26.60
2018-02-19T07:04:14.464Z,25.60
2018-02-19T07:05:14.491Z,26.40
2018-02-19T07:06:14.515Z,24.90
2018-02-19T07:07:14.540Z,25.80
2018-02-19T07:08:14.566Z,25.30
2018-02-19T07:09:14.591Z,25.70
2018-02-19T07:10:14.618Z,25.20
2018-02-19T07:11:14.643Z,26.20
2018-02-19T07:12:14.669Z,25.20
2018-02-19T07:13:14.695Z,26.10
2018-02-19T07:14:14.718Z,25.30
2018-02-19T07:15:14.745Z,25.40
2018-02-19T07:16:14.770Z,26.60
2018-02-19T07:17:14.796Z,25.40
2018-02-19T07:18:14.821Z,25.30
2018-02-19T07:19:14.847Z,24.20
2018-02-19T07:20:14.870Z,25.30
2018-02-19T07:21:14.896Z,25.40
2018-02-19T07:22:14.921Z,25.60
2018-02-19T07:23:14.952Z,26.10
2018-02-19T07:24:14.972Z,25.70
2018-02-19T07:25:15.000Z,26.70
2018-02-19T07:26:15.026Z,25.20
2018-02-19T07:27:15.051Z,25.60
2018-02-19T07:28:15.076Z,26.10
2018-02-19T07:29:15.102Z,25.30
2018-02-19T07:30:15.130Z,26.70
2018-02-19T07:31:15.157Z,27.30
2018-02-19T07:32:15.178Z,27.40
2018-02-19T07:33:15.204Z,24.70
2018-02-19T07:34:15.231Z,26.20
2018-02-19T07:35:15.256Z,26.10
2018-02-19T07:36:15.281Z,26.20
2018-02-19T07:37:15.308Z,25.50
2018-02-19T07:38:15.333Z,25.30
2018-02-19T07:39:15.360Z,25.90
2018-02-19T07:40:15.385Z,27.30
2018-02-19T07:41:15.411Z,27.10
2018-02-19T07:42:15.437Z,25.90
2018-02-19T07:43:15.462Z,26.90
2018-02-19T07:44:15.496Z,27.30
2018-02-19T07:45:15.514Z,26.00
2018-02-19T07:46:15.539Z,26.40
2018-02-19T07:47:15.565Z,26.00
2018-02-19T07:48:15.591Z,26.70
2018-02-19T07:49:15.617Z,27.20
2018-02-19T07:50:15.646Z,26.80
2018-02-19T07:51:15.669Z,27.10
2018-02-19T07:52:15.694Z,27.90
2018-02-19T07:53:15.722Z,27.80
2018-02-19T07:54:15.747Z,28.30
2018-02-19T07:55:15.773Z,28.90
2018-02-19T07:56:15.804Z,28.80
2018-02-19T07:57:15.825Z,28.70
2018-02-19T07:58:15.851Z,29.40
2018-02-19T07:59:15.877Z,28.00
2018-02-19T08:00:15.901Z,28.70
2018-02-19T08:01:15.928Z,27.40
2018-02-19T08:02:15.954Z,28.40
2018-02-19T08:03:15.981Z,28.00
2018-02-19T08:04:16.006Z,27.30
2018-02-19T08:05:16.033Z,26.50
2018-02-19T08:06:16.069Z,27.90
2018-02-19T08:07:16.086Z,28.30
2018-02-19T08:08:16.111Z,28.50
2018-02-19T08:09:16.137Z,28.10
2018-02-19T08:10:16.164Z,28.20
2018-02-19T08:11:16.192Z,27.30
2018-02-19T08:12:16.218Z,26.70
2018-02-19T08:13:16.243Z,26.60
2018-02-19T08:14:16.269Z,28.20
2018-02-19T08:15:16.298Z,26.70
2018-02-19T08:16:16.320Z,26.50
2018-02-19T08:17:16.347Z,26.70
2018-02-19T08:18:16.377Z,25.90
2018-02-19T08:19:16.410Z,26.90
2018-02-19T08:20:16.425Z,26.00
2018-02-19T08:21:16.451Z,27.70
2018-02-19T08:22:16.478Z,26.40
2018-02-19T08:23:16.504Z,27.50
2018-02-19T08:24:16.531Z,25.60
2018-02-19T08:25:16.558Z,26.70
2018-02-19T08:26:16.584Z,26.60
2018-02-19T08:27:16.611Z,26.60
2018-02-19T08:28:16.636Z,26.10
2018-02-19T08:29:16.663Z,25.50
2018-02-19T08:30:16.689Z,26.80
2018-02-19T08:31:16.715Z,25.40
2018-02-19T08:32:16.743Z,25.60
2018-02-19T08:33:16.771Z,26.90
2018-02-19T08:34:16.794Z,26.00
2018-02-19T08:35:16.821Z,26.30
2018-02-19T08:36:16.849Z,26.40
2018-02-19T08:37:16.873Z,25.90
2018-02-19T08:38:16.900Z,25.10
2018-02-19T08:39:16.927Z,24.90
2018-02-19T08:40:16.953Z,26.00
2018-02-19T08:41:16.980Z,25.10
2018-02-19T08:42:17.006Z,24.90
2018-02-19T08:43:17.034Z,23.60
2018-02-19T08:44:17.058Z,23.60
2018-02-19T08:45:17.086Z,26.00
2018-02-19T08:46:17.113Z,24.90
2018-02-19T08:47:17.141Z,23.30
2018-02-19T08:48:17.165Z,24.70
2018-02-19T08:49:17.193Z,23.50
2018-02-19T08:50:17.218Z,24.60
2018-02-19T08:51:17.248Z,23.50
2018-02-19T08:52:17.272Z,22.90
2018-02-19T08:53:17.342Z,23.50
2018-02-19T08:54:17.326Z,22.80
2018-02-19T08:55:17.352Z,21.90
2018-02-19T08:56:17.378Z,24.70
2018-02-19T08:57:17.406Z,22.80
2018-02-19T08:58:17.433Z,22.90
2018-02-19T08:59:17.462Z,23.50
2018-02-19T09:00:17.486Z,24.30
2018-02-19T09:01:17.513Z,22.70
2018-02-19T09:02:17.541Z,23.10
2018-02-19T09:03:17.567Z,24.10
2018-02-19T09:04:17.594Z,23.90
2018-02-19T09:05:17.621Z,24.60
2018-02-19T09:06:17.649Z,22.30
2018-02-19T09:07:17.677Z,22.70
2018-02-19T09:08:17.703Z,23.40
2018-02-19T09:09:17.730Z,21.60
2018-02-19T09:10:17.756Z,21.40
2018-02-19T09:11:17.785Z,21.20
2018-02-19T09:12:17.812Z,20.20
2018-02-19T09:13:17.840Z,22.30
2018-02-19T09:14:17.866Z,23.20
2018-02-19T09:15:17.898Z,22.50
2018-02-19T09:16:17.919Z,22.30
2018-02-19T09:17:17.949Z,21.10
2018-02-19T09:18:17.976Z,23.90
2018-02-19T09:19:18.003Z,22.10
2018-02-19T09:20:18.028Z,22.70
2018-02-19T09:21:18.057Z,22.90
2018-02-19T09:22:18.084Z,22.40
2018-02-19T09:23:18.112Z,22.40
2018-02-19T09:24:18.137Z,21.50
2018-02-19T09:25:18.166Z,21.70
2018-02-19T09:26:18.193Z,21.50
2018-02-19T09:27:18.220Z,22.70
2018-02-19T09:28:18.248Z,22.30
2018-02-19T09:29:18.274Z,21.30
2018-02-19T09:30:18.302Z,20.90
2018-02-19T09:31:18.330Z,21.50
2018-02-19T09:32:18.356Z,22.10
2018-02-19T09:33:18.385Z,22.20
2018-02-19T09:34:18.411Z,22.70
2018-02-19T09:35:18.440Z,21.10
2018-02-19T09:36:18.465Z,20.90
2018-02-19T09:37:18.491Z,20.10
2018-02-19T09:38:18.520Z,21.00
2018-02-19T09:39:18.547Z,21.10
2018-02-19T09:40:18.574Z,22.40
2018-02-19T09:41:18.601Z,22.50
2018-02-19T09:42:18.629Z,23.10
2018-02-19T09:43:18.658Z,22.80
2018-02-19T09:44:18.692Z,19.90
2018-02-19T09:45:18.712Z,21.10
2018-02-19T09:46:18.739Z,22.10
2018-02-19T09:47:18.768Z,21.80
2018-02-19T09:48:18.793Z,21.40
2018-02-19T09:49:18.824Z,21.80
2018-02-19T09:50:18.848Z,22.30
2018-02-19T09:51:18.877Z,21.60
2018-02-19T09:52:18.903Z,21.60
2018-02-19T09:53:18.931Z,23.00
2018-02-19T09:54:18.982Z,21.30
2018-02-19T09:55:18.998Z,22.00
2018-02-19T09:56:19.013Z,21.50
2018-02-19T09:57:19.041Z,23.10
2018-02-19T09:58:19.098Z,21.60
2018-02-19T09:59:19.097Z,23.20
2018-02-19T10:00:19.124Z,21.80
2018-02-19T10:01:19.152Z,22.50
2018-02-19T10:02:19.180Z,22.80
2018-02-19T10:03:19.234Z,23.10
2018-02-19T10:04:19.234Z,22.90
2018-02-19T10:05:19.263Z,22.30
2018-02-19T10:06:19.294Z,24.30
2018-02-19T10:07:19.319Z,22.10
2018-02-19T10:08:19.352Z,21.80
2018-02-19T10:09:19.374Z,22.20
2018-02-19T10:10:19.748Z,23.70
2018-02-19T10:11:19.430Z,21.70
2018-02-19T10:12:19.458Z,21.40
2018-02-19T10:13:19.487Z,21.30
2018-02-19T10:14:19.513Z,20.80
2018-02-19T10:15:19.542Z,20.60
2018-02-19T10:16:19.569Z,20.20
2018-02-19T10:17:19.597Z,19.00
2018-02-19T10:18:19.658Z,18.70
2018-02-19T10:19:19.653Z,19.00
2018-02-19T10:20:19.681Z,19.00
2018-02-19T10:21:19.709Z,18.30
2018-02-19T10:22:19.777Z,18.20
2018-02-19T10:23:19.764Z,18.00
2018-02-19T10:24:19.810Z,18.40
2018-02-19T10:25:19.820Z,19.70
2018-02-19T10:26:19.909Z,20.00
2018-02-19T10:27:19.877Z,20.30
2018-02-19T10:28:19.905Z,19.00
2018-02-19T10:29:19.933Z,20.20
2018-02-19T10:30:20.011Z,20.10
2018-02-19T10:31:19.991Z,19.70
2018-02-19T10:32:20.019Z,19.70
2018-02-19T10:33:20.048Z,17.50
2018-02-19T10:34:20.103Z,18.40
2018-02-19T10:35:20.103Z,17.20
2018-02-19T10:36:20.134Z,18.00
2018-02-19T10:37:20.169Z,17.50
2018-02-19T10:38:20.188Z,20.00
2018-02-19T10:39:20.217Z,19.50
2018-02-19T10:40:20.245Z,18.80
2018-02-19T10:41:20.273Z,17.50
2018-02-19T10:42:20.302Z,17.20
2018-02-19T10:43:20.330Z,17.90
2018-02-19T10:44:20.358Z,18.00
2018-02-19T10:45:20.387Z,16.70
2018-02-19T10:46:20.415Z,17.30
2018-02-19T10:47:20.444Z,16.40
2018-02-19T10:48:20.470Z,15.30
2018-02-19T10:49:20.500Z,15.00
2018-02-19T10:50:20.529Z,16.20
2018-02-19T10:51:20.558Z,16.80
2018-02-19T10:52:20.586Z,18.20
2018-02-19T10:53:20.615Z,16.80
2018-02-19T10:54:20.652Z,16.40
2018-02-19T10:55:20.673Z,16.30
2018-02-19T10:56:20.700Z,14.50
2018-02-19T10:57:20.729Z,14.50
2018-02-19T10:58:20.757Z,13.80
2018-02-19T10:59:20.787Z,13.50
2018-02-19T11:00:20.829Z,15.20
2018-02-19T11:01:20.847Z,13.80
2018-02-19T11:02:20.872Z,13.50
2018-02-19T11:03:20.900Z,13.30
2018-02-19T11:04:20.927Z,13.20
2018-02-19T11:05:20.957Z,13.50
2018-02-19T11:06:20.985Z,14.00
2018-02-19T11:07:21.015Z,12.50
2018-02-19T11:08:21.042Z,12.70
2018-02-19T11:09:21.070Z,13.40
2018-02-19T11:10:21.100Z,14.50
2018-02-19T11:11:21.128Z,14.70
2018-02-19T11:12:21.156Z,14.10
2018-02-19T11:13:21.223Z,13.70
2018-02-19T11:14:21.212Z,14.10
2018-02-19T11:15:21.242Z,14.00
2018-02-19T11:16:21.270Z,14.00
2018-02-19T11:17:21.298Z,14.80
2018-02-19T11:18:21.328Z,13.40
2018-02-19T11:19:21.355Z,14.60
2018-02-19T11:20:21.383Z,14.50
2018-02-19T11:21:21.445Z,14.00
2018-02-19T11:22:21.441Z,14.40
2018-02-19T11:23:21.469Z,13.40
2018-02-19T11:24:21.537Z,14.20
2018-02-19T11:25:21.524Z,14.00
2018-02-19T11:26:21.558Z,14.50
2018-02-19T11:27:21.583Z,14.10
2018-02-19T11:28:21.613Z,13.60
2018-02-19T11:29:21.677Z,14.50
2018-02-19T11:30:21.698Z,14.00
2018-02-19T11:31:21.696Z,13.50
2018-02-19T11:32:21.724Z,13.50
2018-02-19T11:33:21.752Z,14.00
2018-02-19T11:34:21.787Z,14.10
2018-02-19T11:35:21.828Z,14.30
2018-02-19T11:36:21.836Z,14.10
2018-02-19T11:37:21.865Z,14.70
2018-02-19T11:38:21.894Z,14.30
2018-02-19T11:39:21.922Z,14.90
2018-02-19T11:40:21.951Z,15.20
2018-02-19T11:41:21.983Z,16.00
2018-02-19T11:42:22.009Z,16.30
2018-02-19T11:43:22.037Z,14.50
2018-02-19T11:44:22.066Z,15.50
2018-02-19T11:45:22.094Z,15.10
2018-02-19T11:46:22.127Z,14.60
2018-02-19T11:47:22.150Z,14.90
2018-02-19T11:48:22.181Z,14.40
2018-02-19T11:49:22.207Z,15.20
2018-02-19T11:50:22.236Z,14.50
2018-02-19T11:51:22.264Z,15.60
2018-02-19T11:52:22.291Z,16.50
2018-02-19T11:53:22.321Z,15.90
2018-02-19T11:54:22.350Z,15.70
2018-02-19T11:55:22.378Z,16.10
2018-02-19T11:56:22.406Z,16.00
2018-02-19T11:57:22.434Z,16.40
2018-02-19T11:58:22.462Z,16.40
2018-02-19T11:59:22.491Z,15.70
2018-02-19T12:00:22.518Z,15.70
2018-02-19T12:01:22.546Z,16.00
2018-02-19T12:02:22.579Z,16.90
2018-02-19T12:03:22.606Z,18.20
2018-02-19T12:04:22.631Z,17.40
2018-02-19T12:05:22.660Z,16.30
2018-02-19T12:06:22.689Z,16.50
2018-02-19T12:07:22.716Z,16.70
2018-02-19T12:08:22.746Z,16.50
2018-02-19T12:09:22.772Z,16.90
2018-02-19T12:10:22.801Z,15.80
2018-02-19T12:11:22.828Z,15.60
2018-02-19T12:12:22.858Z,15.20
2018-02-19T12:13:22.885Z,16.20
2018-02-19T12:14:22.912Z,15.30
2018-02-19T12:15:22.940Z,16.20
2018-02-19T12:16:22.967Z,15.60
2018-02-19T12:17:22.996Z,14.80
2018-02-19T12:18:23.024Z,16.60
2018-02-19T12:19:23.052Z,15.90
2018-02-19T12:20:23.080Z,15.80
2018-02-19T12:21:23.109Z,15.50
2018-02-19T12:22:23.136Z,16.20
2018-02-19T12:23:23.166Z,16.40
2018-02-19T12:24:23.192Z,16.70
2018-02-19T12:25:23.221Z,17.20
2018-02-19T12:26:23.250Z,16.10
2018-02-19T12:27:23.278Z,17.40
2018-02-19T12:28:23.305Z,15.80
2018-02-19T12:29:23.333Z,16.10
2018-02-19T12:30:23.362Z,15.50
2018-02-19T12:31:23.391Z,15.90
2018-02-19T12:32:23.418Z,16.10
2018-02-19T12:33:23.447Z,15.50
2018-02-19T12:34:23.506Z,16.80
2018-02-19T12:35:23.505Z,16.80
2018-02-19T12:36:23.532Z,16.70
2018-02-19T12:37:23.560Z,17.90
2018-02-19T12:38:23.589Z,17.10
2018-02-19T12:39:23.618Z,17.30
2018-02-19T12:40:23.645Z,16.90
2018-02-19T12:41:23.674Z,16.80
2018-02-19T12:42:23.703Z,15.20
2018-02-19T12:43:23.731Z,15.90
2018-02-19T12:44:23.760Z,15.30
2018-02-19T12:45:23.787Z,15.40
2018-02-19T12:46:23.816Z,15.30
2018-02-19T12:47:23.845Z,14.80
2018-02-19T12:48:23.873Z,16.10
2018-02-19T12:49:23.902Z,15.20
2018-02-19T12:50:23.931Z,15.10
2018-02-19T12:51:23.959Z,14.90
2018-02-19T12:52:23.988Z,15.40